ADDS METAR Data INFO
IDs: Format: Raw Decoded Include TAF

Data at: 1715 UTC 23 Oct 2017

K20U 231655Z AUTO 29019G25KT 10SM CLR 10/M02 A3026 RMK AO2
K20U 231635Z AUTO 29019G25KT 10SM CLR 09/M02 A3026 RMK AO2
K20U 231615Z AUTO 31022KT 10SM CLR 09/M03 A3025 RMK AO2
K20U 231555Z AUTO 30019G27KT 10SM CLR 08/M03 A3025 RMK AO2
K20U 231535Z AUTO 30020G26KT 10SM CLR 08/M02 A3024 RMK AO2
K20U 231515Z AUTO 30018G24KT 10SM CLR 07/M02 A3023 RMK AO2
K20U 231455Z AUTO 30018KT 10SM FEW080 06/M02 A3022 RMK AO2
K20U 231435Z AUTO 30013KT 10SM FEW080 05/M02 A3022 RMK AO2
K20U 231415Z AUTO 30012G18KT 10SM CLR 05/M02 A3021 RMK AO2
K20U 231355Z AUTO 30013KT 10SM CLR 04/M01 A3020 RMK AO2
K20U 231335Z AUTO 30009G15KT 10SM CLR 04/M01 A3019 RMK AO2
K20U 231315Z AUTO 30012KT 10SM CLR 04/M01 A3018 RMK AO2
K20U 231255Z AUTO 29014KT 10SM CLR 04/M01 A3017 RMK AO2
K20U 231235Z AUTO 29014G19KT 10SM FEW100 05/M01 A3016 RMK AO2
K20U 231215Z AUTO 29014KT 10SM BKN100 05/M01 A3016 RMK AO2
K20U 231155Z AUTO 29015KT 10SM FEW070 SCT085 OVC100 06/M01 A3014 RMK AO2
K20U 231135Z AUTO 29015G21KT 10SM SCT070 OVC090 06/M01 A3013 RMK AO2
K20U 231115Z AUTO 28014G19KT 10SM OVC090 06/M01 A3012 RMK AO2
K20U 231055Z AUTO 29015G22KT 10SM FEW075 SCT095 06/M01 A3011 RMK AO2
K20U 231035Z AUTO 29019KT 10SM FEW032 SCT075 06/M01 A3010 RMK AO2
K20U 231015Z AUTO 30019G26KT 10SM CLR 06/M01 A3009 RMK AO2
K20U 230955Z AUTO 29021G27KT 10SM CLR 07/M00 A3008 RMK AO2
K20U 230935Z AUTO 29019G29KT 10SM FEW055 07/M00 A3007 RMK AO2
K20U 230915Z AUTO 30024G30KT 10SM FEW055 FEW095 FEW120 08/00 A3005 RMK AO2
K20U 230855Z AUTO 29018G24KT 10SM SCT070 SCT080 BKN095 07/01 A3004 RMK AO2
K20U 230835Z AUTO 29017KT 10SM FEW049 SCT060 BKN070 07/02 A3003 RMK AO2
K20U 230815Z AUTO 29019G26KT 10SM BKN060 BKN070 OVC080 07/02 A3002 RMK AO2
K20U 230755Z AUTO 29020G28KT 10SM FEW060 BKN075 OVC090 07/02 A3001 RMK AO2
K20U 230735Z AUTO 29018G25KT 10SM FEW075 OVC095 07/02 A3001 RMK AO2
K20U 230715Z AUTO 29019KT 10SM FEW040 SCT055 OVC090 07/02 A2999 RMK AO2
K20U 230655Z AUTO 30020G25KT 10SM FEW034 BKN044 OVC055 07/03 A2998 RMK AO2
K20U 230635Z AUTO 30025G36KT 9SM -DZ FEW029 SCT045 BKN060 07/03 A2997 RMK AO2
K20U 230615Z AUTO 30026G39KT 10SM FEW037 SCT045 BKN055 08/02 A2996 RMK AO2
K20U 230555Z AUTO 30030G37KT 10SM FEW024 SCT034 BKN043 08/02 A2994 RMK AO2
K20U 230535Z AUTO 29029G39KT 9SM -DZ FEW036 BKN045 BKN055 08/03 A2993 RMK AO2
K20U 230515Z AUTO 29029G37KT 10SM FEW055 FEW070 FEW120 08/01 A2992 RMK AO2
K20U 230455Z AUTO 29022G31KT 10SM CLR 08/01 A2991 RMK AO2
K20U 230435Z AUTO 29024G32KT 10SM CLR 08/02 A2990 RMK AO2
K20U 230415Z AUTO 27015KT 10SM SCT080 08/03 A2989 RMK AO2
K20U 230355Z AUTO 27016KT 10SM SCT075 OVC085 09/03 A2988 RMK AO2
K20U 230335Z AUTO 26015KT 10SM FEW043 FEW050 BKN085 08/03 A2988 RMK AO2
K20U 230315Z AUTO 27011G18KT 10SM FEW043 SCT050 BKN085 08/03 A2986 RMK AO2
K20U 230255Z AUTO 28014G20KT 10SM FEW045 FEW070 SCT075 09/03 A2985 RMK AO2
K20U 230235Z AUTO 30016KT 10SM FEW120 09/03 A2984 RMK AO2
K20U 230215Z AUTO 31025KT 10SM FEW065 FEW075 BKN110 10/03 A2983 RMK AO2
K20U 230155Z AUTO 27012KT 10SM FEW060 SCT075 BKN085 09/04 A2981 RMK AO2
K20U 230135Z AUTO 29013KT 10SM FEW050 BKN070 BKN100 09/04 A2979 RMK AO2
K20U 230115Z AUTO 29016G29KT 10SM BKN070 BKN085 10/04 A2980 RMK AO2
K20U 230055Z AUTO 28016KT 10SM FEW031 SCT075 BKN090 10/06 A2979 RMK AO2
K20U 230035Z AUTO 29021G35KT 8SM -DZ FEW030 BKN049 OVC070 11/06 A2978 RMK AO2
K20U 230015Z AUTO 26013KT 10SM SCT070 BKN075 BKN090 11/05 A2973 RMK AO2
K20U 222355Z AUTO 23012KT 10SM CLR 11/05 A2972 RMK AO2
K20U 222335Z AUTO 25009G16KT 10SM CLR 11/05 A2972 RMK AO2
K20U 222315Z AUTO 25014G20KT 10SM CLR 12/05 A2971 RMK AO2
K20U 222255Z AUTO 25021G30KT 10SM FEW055 FEW075 SCT085 13/05 A2972 RMK AO2
K20U 222235Z AUTO 28014G22KT 10SM FEW036 SCT055 BKN075 11/06 A2974 RMK AO2
K20U 222215Z AUTO 31030G38KT 4SM -DZ SCT048 BKN080 OVC100 12/06 A2973 RMK AO2
K20U 222155Z AUTO 28026G36KT 10SM BKN080 BKN100 19/M00 A2968 RMK AO2
K20U 222135Z AUTO 27023KT 10SM FEW090 19/M00 A2967 RMK AO2
K20U 222115Z AUTO 27025G35KT 10SM CLR 18/00 A2968 RMK AO2
K20U 222055Z AUTO 28024G37KT 10SM FEW090 FEW120 19/00 A2968 RMK AO2
K20U 222035Z AUTO 28029G37KT 10SM FEW085 18/M00 A2968 RMK AO2
K20U 222015Z AUTO 26026G37KT 10SM SCT080 18/M01 A2968 RMK AO2
K20U 221955Z AUTO 27025G36KT 10SM FEW070 FEW080 18/M01 A2968 RMK AO2
K20U 221935Z AUTO 26031G36KT 10SM FEW075 FEW085 18/M01 A2969 RMK AO2
K20U 221915Z AUTO 26031G39KT 10SM BKN075 BKN085 18/M02 A2969 RMK AO2
K20U 221855Z AUTO 25025KT 10SM BKN075 BKN085 17/M03 A2970 RMK AO2
K20U 221835Z AUTO 25017KT 10SM OVC075 16/M02 A2972 RMK AO2
K20U 221815Z AUTO 24017G24KT 10SM OVC075 15/M02 A2974 RMK AO2
K20U 221755Z AUTO 24014KT 10SM BKN070 BKN090 14/M02 A2974 RMK AO2
K20U 221735Z AUTO 24016G21KT 10SM FEW044 SCT060 13/M02 A2975 RMK AO2
K20U 221715Z AUTO 24017G25KT 9SM -DZ FEW044 BKN060 BKN080 12/M01 A2976 RMK AO2
K20U 221655Z AUTO 25017G24KT 10SM SCT060 BKN075 OVC090 12/M04 A2976 RMK AO2
K20U 221635Z AUTO 25018KT 10SM FEW049 BKN070 BKN095 12/M05 A2977 RMK AO2
K20U 221615Z AUTO 23015G23KT 10SM FEW055 BKN070 BKN080 11/M06 A2977 RMK AO2
K20U 221555Z AUTO 24017KT 10SM BKN055 BKN065 10/M06 A2977 RMK AO2
K20U 221535Z AUTO 23017G23KT 10SM OVC055 09/M07 A2979 RMK AO2
K20U 221515Z AUTO 22015KT 10SM BKN060 OVC070 09/M07 A2979 RMK AO2
K20U 221455Z AUTO 22014KT 10SM BKN070 08/M07 A2980 RMK AO2
K20U 221435Z AUTO 21011G17KT 10SM CLR 07/M08 A2980 RMK AO2
K20U 221415Z AUTO 20012KT 10SM CLR 05/M08 A2980 RMK AO2
K20U 221355Z AUTO 21013KT 10SM CLR 04/M08 A2981 RMK AO2
K20U 221335Z AUTO 22012G18KT 10SM CLR 04/M08 A2981 RMK AO2
K20U 221315Z AUTO 21012KT 10SM CLR 03/M08 A2981 RMK AO2
K20U 221255Z AUTO 21013KT 10SM CLR 02/M08 A2982 RMK AO2
K20U 221235Z AUTO 22011KT 10SM CLR 01/M08 A2984 RMK AO2
K20U 221215Z AUTO 22011KT 10SM CLR 01/M08 A2984 RMK AO2
K20U 221155Z AUTO 22011KT 10SM CLR 01/M08 A2985 RMK AO2
K20U 221135Z AUTO 22010KT 10SM CLR 01/M08 A2985 RMK AO2
K20U 221115Z AUTO 22010KT 10SM CLR 01/M08 A2985 RMK AO2
K20U 221055Z AUTO 22009KT 10SM CLR 01/M07 A2986 RMK AO2
K20U 221035Z AUTO 22010KT 10SM CLR 02/M07 A2986 RMK AO2
K20U 221015Z AUTO 22011KT 10SM CLR 02/M07 A2986 RMK AO2
K20U 220955Z AUTO 23010KT 10SM CLR 01/M06 A2987 RMK AO2
K20U 220935Z AUTO 23010KT 10SM CLR 02/M06 A2988 RMK AO2
K20U 220915Z AUTO 22011KT 10SM CLR 01/M06 A2987 RMK AO2
K20U 220855Z AUTO 23009KT 10SM CLR 01/M06 A2987 RMK AO2
K20U 220835Z AUTO 22012KT 10SM CLR 01/M06 A2988 RMK AO2
K20U 220815Z AUTO 22009KT 10SM CLR 02/M06 A2989 RMK AO2
K20U 220755Z AUTO 23008KT 10SM CLR 01/M06 A2990 RMK AO2
K20U 220735Z AUTO 23011KT 10SM CLR 02/M06 A2990 RMK AO2
K20U 220715Z AUTO 23011KT 10SM CLR 02/M06 A2989 RMK AO2
K20U 220655Z AUTO 24010KT 10SM CLR 02/M06 A2989 RMK AO2
K20U 220635Z AUTO 24010KT 10SM CLR 01/M06 A2990 RMK AO2
K20U 220615Z AUTO 24009KT 10SM CLR 01/M06 A2989 RMK AO2
K20U 220555Z AUTO 24008KT 10SM CLR 01/M06 A2988 RMK AO2
K20U 220535Z AUTO 24009KT 10SM CLR 02/M06 A2988 RMK AO2